Time;durP1;ratioP1;P1;durP2;ratioP2;P2;SDS_P1;SDS_P2;PMS_P1;PMS_P2;Temp;Humidity;BMP_temperature;BMP_pressure;BME280_temperature;BME280_humidity;BME280_pressure;Samples;Min_cycle;Max_cycle;Signal;HPM_P1;HPM_P2
2023/09/20 04:43:31;;;;;;;;;;;;;;;14.97;70.81;100407.13;109812;1274;22970;-50
2023/09/20 04:45:57;;;;;;;;;;;;;;;15.03;70.45;100407.89;110070;1269;23724;-51
2023/09/20 04:48:24;;;;;;;;;;;;;;;15.10;69.93;100411.11;110071;1269;22430;-45
2023/09/20 04:50:51;;;;;;;;;;;;;;;15.18;69.68;100410.81;109681;1269;22568;-44
2023/09/20 04:53:18;;;;;;;;;;;;;;;15.24;69.33;100410.17;110052;1273;23607;-50
2023/09/20 04:55:45;;;;;;;;;;;;;;;15.31;68.87;100413.21;110125;1268;22510;-44
2023/09/20 04:58:11;;;;;;;;;;;;;;;15.37;68.38;100410.64;108466;1268;22543;-43
2023/09/20 05:00:38;;;;;;;;;;;;;;;15.43;68.10;100406.31;109211;1272;22526;-44
2023/09/20 05:03:11;;;;;;;;;;;;;;;15.51;67.71;100410.21;107755;1275;25262;-44
2023/09/20 05:05:38;;;;;;;;;;;;;;;15.57;67.49;100409.56;107051;1276;22514;-52
2023/09/20 05:08:05;;;;;;;;;;;;;;;15.63;67.09;100409.66;107146;1269;25204;-52
2023/09/20 05:10:32;;;;;;;;;;;;;;;15.67;66.92;100408.72;107350;1275;25400;-50
2023/09/20 05:12:59;;;;;;;;;;;;;;;15.72;66.53;100413.38;108596;1269;22504;-44
2023/09/20 05:15:26;;;;;;;;;;;;;;;15.75;66.40;100407.69;108059;1269;22491;-50
2023/09/20 05:17:52;;;;;;;;;;;;;;;15.77;66.20;100406.05;108968;1262;25330;-52
2023/09/20 05:20:20;;;;;;;;;;;;;;;15.80;66.12;100401.25;109653;1279;22513;-44
2023/09/20 05:22:47;;;;;;;;;;;;;;;15.83;66.14;100403.83;109673;1278;23388;-46
2023/09/20 05:25:15;;;;;;;;;;;;;;;15.89;66.61;100402.13;109731;1272;22554;-45
2023/09/20 05:27:44;;;;;;;;;;;;;;;16.09;66.37;100402.43;109651;1273;22489;-47
2023/09/20 05:30:13;;;;;;;;;;;;;;;16.25;65.87;100402.07;109020;1271;25561;-51
2023/09/20 05:32:43;;;;;;;;;;;;;;;16.41;65.51;100402.79;109382;1277;23068;-45
2023/09/20 05:35:13;;;;;;;;;;;;;;;16.62;64.95;100407.77;109374;1272;23065;-44
2023/09/20 05:37:44;;;;;;;;;;;;;;;16.76;63.91;100403.44;108843;1272;22545;-44
2023/09/20 05:40:17;;;;;;;;;;;;;;;16.80;63.71;100402.09;109839;1275;22466;-52
2023/09/20 05:42:44;;;;;;;;;;;;;;;16.85;65.05;100403.04;109541;1263;22516;-46
2023/09/20 05:45:12;;;;;;;;;;;;;;;16.85;66.23;100407.25;109692;1273;23024;-47
2023/09/20 05:47:40;;;;;;;;;;;;;;;16.84;66.46;100409.57;109713;1278;22494;-45
2023/09/20 05:50:10;;;;;;;;;;;;;;;16.89;66.44;100411.04;109398;1275;22608;-46
2023/09/20 05:52:40;;;;;;;;;;;;;;;16.98;65.85;100405.38;109590;1271;23340;-47
2023/09/20 05:55:14;;;;;;;;;;;;;;;17.04;65.67;100402.73;109544;1272;22513;-46
2023/09/20 05:57:41;;;;;;;;;;;;;;;17.19;64.21;100407.13;109810;1272;23427;-51
2023/09/20 06:00:12;;;;;;;;;;;;;;;17.38;62.78;100406.11;109770;1268;22444;-53
2023/09/20 06:02:41;;;;;;;;;;;;;;;17.57;61.82;100405.24;109571;1270;23303;-46
2023/09/20 06:05:09;;;;;;;;;;;;;;;17.77;61.14;100405.79;109475;1272;22506;-50
2023/09/20 06:07:36;;;;;;;;;;;;;;;17.92;60.22;100406.27;109678;1276;23208;-46
2023/09/20 06:10:04;;;;;;;;;;;;;;;17.98;59.88;100402.72;109801;1272;22533;-46
2023/09/20 06:12:31;;;;;;;;;;;;;;;18.03;59.85;100399.60;109753;1272;22457;-56
2023/09/20 06:14:58;;;;;;;;;;;;;;;18.10;59.97;100402.73;108982;1272;22486;-46
2023/09/20 06:17:32;;;;;;;;;;;;;;;18.20;59.44;100399.64;109178;1269;22502;-55
2023/09/20 06:20:00;;;;;;;;;;;;;;;18.31;59.68;100402.65;109353;1276;22518;-47
2023/09/20 06:22:32;;;;;;;;;;;;;;;18.48;59.75;100398.24;108877;1279;22612;-55
2023/09/20 06:24:58;;;;;;;;;;;;;;;18.66;58.65;100396.44;109478;1272;23844;-46
2023/09/20 06:27:30;;;;;;;;;;;;;;;18.80;58.06;100397.42;109501;1273;23148;-47
2023/09/20 06:29:57;;;;;;;;;;;;;;;18.93;57.25;100402.68;109721;1268;23188;-50
2023/09/20 06:32:24;;;;;;;;;;;;;;;18.99;56.72;100402.66;108721;1278;22511;-46
2023/09/20 06:34:51;;;;;;;;;;;;;;;19.03;56.21;100402.70;109689;1268;22590;-56
2023/09/20 06:37:31;;;;;;;;;;;;;;;19.05;55.62;100408.64;109576;1278;188528;-56
2023/09/20 06:40:38;;;;;;;;;;;;;;;19.07;56.02;100411.05;108269;1273;22527;-57
2023/09/20 06:43:14;;;;;;;;;;;;;;;19.09;55.96;100406.39;109403;1277;22506;-45
2023/09/20 06:45:47;;;;;;;;;;;;;;;19.13;56.20;100411.38;109527;1277;22872;-47
2023/09/20 06:48:14;;;;;;;;;;;;;;;19.21;56.44;100407.94;109797;1273;22990;-47
2023/09/20 06:50:47;;;;;;;;;;;;;;;19.29;56.08;100410.65;109580;1272;22518;-50
2023/09/20 06:53:17;;;;;;;;;;;;;;;19.34;56.16;100414.36;109118;1276;22496;-46
2023/09/20 06:55:44;;;;;;;;;;;;;;;19.36;56.11;100412.54;108599;1275;22502;-57
2023/09/20 06:58:10;;;;;;;;;;;;;;;19.38;56.13;100415.11;109757;1271;22532;-57
2023/09/20 07:00:59;;;;;;;;;;;;;;;19.43;56.29;100413.56;109137;1273;22479;-58
2023/09/20 07:03:28;;;;;;;;;;;;;;;19.50;56.22;100409.58;109065;1267;23193;-56
2023/09/20 07:05:56;;;;;;;;;;;;;;;19.61;55.71;100407.27;109689;1272;22508;-56
2023/09/20 07:08:23;;;;;;;;;;;;;;;19.73;55.79;100405.26;109265;1272;22751;-46
2023/09/20 07:10:52;;;;;;;;;;;;;;;19.84;55.64;100408.39;109472;1274;22546;-47
2023/09/20 07:13:26;;;;;;;;;;;;;;;20.01;56.22;100410.61;109227;1272;23790;-58
2023/09/20 07:15:56;;;;;;;;;;;;;;;20.23;55.85;100411.36;109305;1278;22722;-48
2023/09/20 07:18:25;;;;;;;;;;;;;;;20.46;54.34;100410.86;109159;1278;22514;-45
2023/09/20 07:20:57;;;;;;;;;;;;;;;20.62;53.16;100413.09;109031;1278;22935;-57
2023/09/20 07:23:24;;;;;;;;;;;;;;;20.72;52.61;100410.38;109637;1273;23030;-56
2023/09/20 07:25:51;;;;;;;;;;;;;;;20.82;52.26;100407.49;109692;1275;22485;-47
2023/09/20 07:28:18;;;;;;;;;;;;;;;20.96;51.98;100412.41;109569;1276;22508;-58
2023/09/20 07:30:45;;;;;;;;;;;;;;;21.10;51.52;100407.75;109020;1263;22521;-46
2023/09/20 07:33:23;;;;;;;;;;;;;;;21.26;50.86;100406.20;109659;1273;22515;-46
2023/09/20 07:35:58;;;;;;;;;;;;;;;21.44;50.03;100404.75;109417;1277;22599;-57
2023/09/20 07:38:26;;;;;;;;;;;;;;;21.58;49.54;100404.14;109757;1276;22457;-57
2023/09/20 07:41:21;;;;;;;;;;;;;;;21.76;49.03;100405.83;109810;1278;22436;-46
2023/09/20 07:43:50;;;;;;;;;;;;;;;21.95;48.39;100400.56;109811;1272;22469;-57
2023/09/20 07:46:20;;;;;;;;;;;;;;;22.05;48.04;100396.86;109609;1279;23336;-46
2023/09/20 07:48:50;;;;;;;;;;;;;;;22.09;47.40;100395.48;109873;1278;23253;-57
2023/09/20 07:51:24;;;;;;;;;;;;;;;22.10;47.47;100396.19;109703;1271;22545;-46
2023/09/20 07:53:53;;;;;;;;;;;;;;;22.11;47.05;100393.66;109934;1273;22643;-45
2023/09/20 07:56:20;;;;;;;;;;;;;;;22.13;46.42;100395.83;109701;1276;22638;-58
2023/09/20 07:58:48;;;;;;;;;;;;;;;22.14;46.38;100396.14;109716;1279;25289;-49
2023/09/20 08:01:21;;;;;;;;;;;;;;;22.15;46.68;100398.58;109307;1273;22510;-57
2023/09/20 08:03:52;;;;;;;;;;;;;;;22.23;46.81;100396.08;109182;1272;23670;-47
2023/09/20 08:06:25;;;;;;;;;;;;;;;22.41;46.58;100391.33;109796;1275;22485;-56
2023/09/20 08:09:03;;;;;;;;;;;;;;;22.67;46.19;100388.15;108827;1273;22564;-56
2023/09/20 08:11:30;;;;;;;;;;;;;;;22.90;45.20;100387.39;109180;1270;22679;-58
2023/09/20 08:13:59;;;;;;;;;;;;;;;23.11;44.75;100387.41;109703;1279;23043;-46
2023/09/20 08:16:30;;;;;;;;;;;;;;;23.29;43.46;100383.29;109201;1271;23068;-57
2023/09/20 08:19:21;;;;;;;;;;;;;;;23.47;42.73;100387.88;109504;1270;22452;-46
2023/09/20 08:21:49;;;;;;;;;;;;;;;23.56;41.75;100393.26;109716;1264;22435;-47
2023/09/20 09:00:31;;;;;;;;;;;;;;;24.29;37.13;100354.83;109917;1277;22441;-46
2023/09/20 09:02:58;;;;;;;;;;;;;;;24.50;34.93;100352.42;109581;1273;22696;-45
2023/09/20 09:05:27;;;;;;;;;;;;;;;24.64;33.40;100351.58;109742;1273;22435;-58
2023/09/20 09:07:54;;;;;;;;;;;;;;;24.80;33.04;100346.61;109885;1269;23146;-58
2023/09/20 09:10:21;;;;;;;;;;;;;;;25.01;32.95;100342.31;109826;1273;22496;-58
2023/09/20 09:12:48;;;;;;;;;;;;;;;25.21;33.20;100342.19;109776;1273;23446;-56
2023/09/20 09:15:18;;;;;;;;;;;;;;;25.38;33.01;100347.80;109805;1273;22491;-57
2023/09/20 09:17:46;;;;;;;;;;;;;;;25.49;32.95;100342.86;109848;1273;22439;-57
2023/09/20 09:20:13;;;;;;;;;;;;;;;25.54;33.00;100342.34;109812;1273;22446;-57
2023/09/20 09:22:41;;;;;;;;;;;;;;;25.63;33.14;100350.20;109493;1273;22609;-60
2023/09/20 09:25:23;;;;;;;;;;;;;;;25.67;32.90;100345.11;109834;1272;22420;-57
2023/09/20 09:28:02;;;;;;;;;;;;;;;25.64;32.77;100335.48;109843;1267;23063;-56
2023/09/20 09:30:31;;;;;;;;;;;;;;;25.68;32.15;100340.04;109830;1278;22536;-58
2023/09/20 09:32:57;;;;;;;;;;;;;;;25.69;31.31;100338.02;109725;1273;22866;-46
2023/09/20 09:35:24;;;;;;;;;;;;;;;25.66;31.18;100330.71;109746;1273;22514;-57
2023/09/20 09:38:14;;;;;;;;;;;;;;;25.64;31.47;100335.34;109758;1277;22543;-57
2023/09/20 09:40:50;;;;;;;;;;;;;;;25.66;31.23;100329.86;109783;1276;22948;-57
2023/09/20 09:43:17;;;;;;;;;;;;;;;25.72;30.52;100332.84;109760;1270;22478;-56
2023/09/20 09:45:46;;;;;;;;;;;;;;;25.77;30.44;100332.21;109755;1274;22436;-56
2023/09/20 09:48:15;;;;;;;;;;;;;;;25.78;29.88;100331.63;109753;1278;22499;-57
2023/09/20 09:50:45;;;;;;;;;;;;;;;25.67;30.23;100331.89;109568;1276;22597;-58
2023/09/20 09:53:15;;;;;;;;;;;;;;;25.58;31.01;100333.73;109798;1273;23287;-57
2023/09/20 09:55:42;;;;;;;;;;;;;;;25.55;31.38;100337.99;109882;1272;23387;-58
2023/09/20 09:58:12;;;;;;;;;;;;;;;25.55;31.29;100337.46;109969;1264;23173;-56
2023/09/20 10:00:39;;;;;;;;;;;;;;;25.48;31.35;100333.08;109596;1267;22452;-57
2023/09/20 10:03:29;;;;;;;;;;;;;;;25.43;31.64;100340.70;109726;1270;22532;-57
2023/09/20 10:06:09;;;;;;;;;;;;;;;25.39;31.49;100336.47;109837;1272;22468;-47
2023/09/20 10:08:54;;;;;;;;;;;;;;;25.47;31.58;100337.80;109745;1272;22479;-57
2023/09/20 10:11:21;;;;;;;;;;;;;;;25.51;31.66;100337.02;108940;1272;22949;-56
2023/09/20 10:13:50;;;;;;;;;;;;;;;25.49;31.72;100334.28;109523;1279;24887;-58
2023/09/20 10:16:20;;;;;;;;;;;;;;;25.48;31.63;100331.27;109775;1272;22920;-48
2023/09/20 10:18:54;;;;;;;;;;;;;;;25.52;31.56;100329.65;109557;1275;23194;-56
2023/09/20 10:21:31;;;;;;;;;;;;;;;25.54;31.89;100326.45;109760;1272;22453;-56
2023/09/20 10:24:02;;;;;;;;;;;;;;;25.64;31.82;100321.89;109705;1273;23072;-53
2023/09/20 10:26:29;;;;;;;;;;;;;;;25.75;30.83;100323.05;109603;1272;22519;-44
2023/09/20 10:29:15;;;;;;;;;;;;;;;25.78;30.70;100320.38;109453;1273;23026;-54
2023/09/20 10:31:48;;;;;;;;;;;;;;;25.85;30.75;100316.53;109758;1273;22470;-46
2023/09/20 10:34:21;;;;;;;;;;;;;;;25.95;30.21;100313.34;109751;1272;22445;-44
2023/09/20 10:36:51;;;;;;;;;;;;;;;26.05;30.38;100313.31;109352;1279;22508;-53
2023/09/20 10:39:18;;;;;;;;;;;;;;;26.16;30.10;100314.15;109760;1273;22497;-44
2023/09/20 10:41:45;;;;;;;;;;;;;;;26.18;30.11;100311.02;109771;1276;22544;-45
2023/09/20 10:44:29;;;;;;;;;;;;;;;26.19;30.11;100313.09;109792;1279;22446;-44
2023/09/20 10:47:09;;;;;;;;;;;;;;;26.20;30.43;100309.27;109708;1273;22611;-52
2023/09/20 10:49:53;;;;;;;;;;;;;;;26.22;30.62;100307.02;109855;1271;23907;-44
2023/09/20 10:52:32;;;;;;;;;;;;;;;26.27;30.48;100300.23;109852;1272;22441;-44
2023/09/20 10:55:14;;;;;;;;;;;;;;;26.30;30.83;100303.63;109877;1276;23186;-42
2023/09/20 10:57:42;;;;;;;;;;;;;;;26.31;31.12;100302.31;109841;1276;22447;-43
2023/09/20 11:00:09;;;;;;;;;;;;;;;26.31;31.11;100299.77;109826;1275;22430;-44
2023/09/20 11:02:37;;;;;;;;;;;;;;;26.32;31.22;100294.39;109793;1267;22542;-44
2023/09/20 11:05:05;;;;;;;;;;;;;;;26.34;31.14;100291.02;109781;1272;22484;-44
2023/09/20 11:07:34;;;;;;;;;;;;;;;26.39;31.13;100292.15;109824;1274;23181;-45
2023/09/20 11:10:02;;;;;;;;;;;;;;;26.39;30.80;100286.92;109960;1273;22449;-46
2023/09/20 11:12:30;;;;;;;;;;;;;;;26.34;30.57;100284.97;109733;1278;23027;-53
2023/09/20 11:14:57;;;;;;;;;;;;;;;26.33;29.95;100281.30;109881;1272;23269;-53
2023/09/20 11:17:24;;;;;;;;;;;;;;;26.38;29.83;100279.52;109934;1272;22470;-53
2023/09/20 11:19:51;;;;;;;;;;;;;;;26.48;29.43;100274.78;109864;1278;22468;-53
2023/09/20 11:22:18;;;;;;;;;;;;;;;26.56;29.16;100272.11;109680;1279;22566;-45
2023/09/20 11:24:45;;;;;;;;;;;;;;;26.64;27.79;100274.03;109761;1274;22483;-45
2023/09/20 11:27:13;;;;;;;;;;;;;;;26.67;27.36;100270.27;109764;1271;22444;-53
2023/09/20 11:29:49;;;;;;;;;;;;;;;26.69;27.78;100270.86;109840;1278;22509;-54
2023/09/20 11:32:17;;;;;;;;;;;;;;;26.69;27.77;100263.49;109873;1271;23099;-54
2023/09/20 11:34:44;;;;;;;;;;;;;;;26.69;27.80;100261.02;109746;1273;22870;-52
2023/09/20 11:37:15;;;;;;;;;;;;;;;26.69;28.16;100261.37;109930;1279;22994;-53
2023/09/20 11:39:43;;;;;;;;;;;;;;;26.72;28.15;100260.10;109946;1279;22457;-53
2023/09/20 11:42:10;;;;;;;;;;;;;;;26.76;28.11;100255.54;109786;1270;22474;-43
2023/09/20 11:44:37;;;;;;;;;;;;;;;26.77;27.80;100254.89;109909;1273;22535;-44
2023/09/20 11:47:05;;;;;;;;;;;;;;;26.80;27.86;100256.52;109966;1270;22420;-44
2023/09/20 11:49:32;;;;;;;;;;;;;;;26.82;27.88;100253.55;109942;1274;22995;-45
2023/09/20 11:51:59;;;;;;;;;;;;;;;26.79;27.84;100250.09;110009;1268;22489;-42
2023/09/20 11:54:31;;;;;;;;;;;;;;;26.79;27.72;100253.88;109910;1278;22572;-54
2023/09/20 11:57:00;;;;;;;;;;;;;;;26.76;27.57;100249.64;109909;1271;22475;-44
2023/09/20 11:59:27;;;;;;;;;;;;;;;26.70;27.54;100252.34;109885;1280;22410;-43
2023/09/20 12:01:54;;;;;;;;;;;;;;;26.66;27.79;100247.77;109984;1278;23119;-44
2023/09/20 12:04:21;;;;;;;;;;;;;;;26.65;27.80;100244.11;109988;1279;22423;-53
2023/09/20 12:06:48;;;;;;;;;;;;;;;26.66;28.04;100243.52;109830;1272;22935;-53
2023/09/20 12:09:16;;;;;;;;;;;;;;;26.67;28.06;100239.34;109989;1271;22833;-45
2023/09/20 12:11:43;;;;;;;;;;;;;;;26.63;27.54;100245.69;109873;1272;22530;-44
2023/09/20 12:14:13;;;;;;;;;;;;;;;26.59;27.01;100243.98;109634;1271;25201;-52
2023/09/20 12:16:41;;;;;;;;;;;;;;;26.53;27.54;100238.96;109917;1275;23110;-52
2023/09/20 12:19:08;;;;;;;;;;;;;;;26.59;27.88;100243.78;109946;1268;22451;-53
2023/09/20 12:21:35;;;;;;;;;;;;;;;26.68;28.02;100246.79;109914;1272;22431;-45
2023/09/20 12:24:02;;;;;;;;;;;;;;;26.71;28.08;100240.30;109130;1275;22622;-44
2023/09/20 12:26:30;;;;;;;;;;;;;;;26.75;28.05;100237.88;109894;1275;22450;-44
2023/09/20 12:28:58;;;;;;;;;;;;;;;26.79;28.14;100234.55;109950;1272;23126;-54
2023/09/20 12:31:25;;;;;;;;;;;;;;;26.82;27.91;100235.77;109873;1272;22468;-53
2023/09/20 12:33:53;;;;;;;;;;;;;;;26.83;28.08;100232.85;109203;1273;23309;-53
2023/09/20 12:36:23;;;;;;;;;;;;;;;26.86;28.37;100229.96;109935;1278;23647;-54
2023/09/20 12:38:50;;;;;;;;;;;;;;;26.93;28.30;100226.82;109956;1278;22480;-54
2023/09/20 12:41:19;;;;;;;;;;;;;;;27.01;28.11;100219.65;109861;1273;23207;-54
2023/09/20 12:43:46;;;;;;;;;;;;;;;27.08;27.87;100215.92;109943;1273;22427;-44
2023/09/20 12:46:13;;;;;;;;;;;;;;;27.16;27.59;100216.08;109976;1278;22438;-44
2023/09/20 12:48:40;;;;;;;;;;;;;;;27.23;27.64;100214.32;109991;1272;22456;-44
2023/09/20 12:51:07;;;;;;;;;;;;;;;27.27;27.61;100206.57;109718;1275;22577;-53
2023/09/20 12:53:34;;;;;;;;;;;;;;;27.29;27.32;100211.05;110012;1274;22431;-44
2023/09/20 12:56:04;;;;;;;;;;;;;;;27.27;27.48;100208.36;109987;1272;22487;-45
2023/09/20 12:58:31;;;;;;;;;;;;;;;27.17;27.52;100210.81;109951;1270;22440;-53
2023/09/20 13:00:57;;;;;;;;;;;;;;;27.05;27.60;100205.91;109997;1277;22465;-53
2023/09/20 13:03:28;;;;;;;;;;;;;;;26.97;27.70;100206.84;110042;1279;22962;-45
2023/09/20 13:05:55;;;;;;;;;;;;;;;26.94;27.61;100205.11;109972;1278;23217;-44
2023/09/20 13:08:24;;;;;;;;;;;;;;;26.91;27.44;100204.94;109977;1273;22524;-43
2023/09/20 13:10:51;;;;;;;;;;;;;;;26.86;27.44;100201.52;110029;1276;22488;-44
2023/09/20 13:13:19;;;;;;;;;;;;;;;26.83;27.22;100204.25;109988;1274;23211;-43
2023/09/20 13:15:46;;;;;;;;;;;;;;;26.82;27.04;100204.54;109985;1275;23222;-52
2023/09/20 13:18:13;;;;;;;;;;;;;;;26.79;27.02;100206.10;109980;1272;22759;-44
2023/09/20 13:20:43;;;;;;;;;;;;;;;26.80;27.07;100203.36;109957;1260;22436;-44
2023/09/20 13:23:10;;;;;;;;;;;;;;;26.88;26.80;100202.79;110005;1279;22453;-53
2023/09/20 13:25:41;;;;;;;;;;;;;;;27.02;26.34;100200.20;109997;1268;22455;-54
2023/09/20 13:28:08;;;;;;;;;;;;;;;27.20;26.30;100197.00;110100;1272;22535;-52
2023/09/20 13:30:35;;;;;;;;;;;;;;;27.39;26.04;100197.63;110022;1275;22544;-53
2023/09/20 13:33:02;;;;;;;;;;;;;;;27.48;26.02;100196.60;108601;1273;22465;-46
2023/09/20 13:35:30;;;;;;;;;;;;;;;27.55;26.13;100190.72;107398;1273;25422;-45
2023/09/20 13:37:58;;;;;;;;;;;;;;;27.62;25.93;100187.36;108438;1269;22525;-54
2023/09/20 13:40:26;;;;;;;;;;;;;;;27.63;25.58;100190.05;106872;1271;22517;-53
2023/09/20 13:42:53;;;;;;;;;;;;;;;27.57;25.72;100183.97;109853;1270;22508;-53
2023/09/20 13:45:21;;;;;;;;;;;;;;;27.61;25.92;100184.05;108418;1279;22564;-43
2023/09/20 13:47:49;;;;;;;;;;;;;;;27.70;25.82;100185.73;109911;1273;22499;-44
2023/09/20 13:50:19;;;;;;;;;;;;;;;27.73;25.52;100187.52;108808;1268;23755;-53
2023/09/20 13:52:46;;;;;;;;;;;;;;;27.64;25.20;100184.21;107589;1279;22748;-43
2023/09/20 13:55:17;;;;;;;;;;;;;;;27.54;25.32;100182.23;108429;1279;22481;-53
2023/09/20 13:57:54;;;;;;;;;;;;;;;27.50;24.95;100184.16;109640;1271;23197;-44
2023/09/20 14:00:21;;;;;;;;;;;;;;;27.48;24.86;100185.88;110001;1275;22463;-45
2023/09/20 14:02:48;;;;;;;;;;;;;;;27.46;24.87;100182.61;110031;1274;23083;-43
2023/09/20 14:05:15;;;;;;;;;;;;;;;27.49;24.65;100181.85;109900;1275;22951;-54
2023/09/20 14:07:45;;;;;;;;;;;;;;;27.51;24.61;100182.77;110029;1278;22438;-54
2023/09/20 14:10:13;;;;;;;;;;;;;;;27.55;25.09;100182.54;110079;1278;22421;-52
2023/09/20 14:12:43;;;;;;;;;;;;;;;27.64;24.99;100175.04;110020;1279;22533;-54
2023/09/20 14:15:11;;;;;;;;;;;;;;;27.78;24.84;100174.77;109970;1279;23262;-43
2023/09/20 14:17:40;;;;;;;;;;;;;;;27.90;24.82;100170.51;110002;1279;23225;-43
2023/09/20 14:20:15;;;;;;;;;;;;;;;27.90;24.93;100168.52;109939;1268;22939;-53
2023/09/20 14:22:42;;;;;;;;;;;;;;;27.83;24.74;100166.17;109961;1279;22841;-53
2023/09/20 14:25:11;;;;;;;;;;;;;;;27.72;24.99;100173.41;109934;1278;22966;-44
